Saturday, December 20, 2014
02:57 UTC
  |  Log In   |  Register Free
Airport Search:

Corpus Christi International Airport
(KCRP)

FAA data valid effective November 13, 2014 - January 08, 2015 (unless otherwise noted).

 
 
 
 
 
 
 
 
 
 
 
 
 
 

Current Aviation Weather for Corpus Christi International Airport (KCRP)

The most recent METAR observation for KCRP was updated at: 2112
METAR Summary (Translated METAR)
KCRP
182051Z 15013KT 10SM SCT021 SCT029 BKN050 BKN250 25/19 A2996 RMK AO2 SLP144 T02500194 56031
KRBO
182055Z AUTO 15008KT 10SM SCT025 SCT031 SCT047 26/19 A2996 RMK AO2 T02560188
(10.1 nm NW from KCRP)
KNGP
182056Z 13009KT 10SM SCT013 OVC080 22/21 A2997 RMK AO2 SLP147 T02220206 56030
(12.1 nm SE from KCRP)
TAF Summary (Translated TAF)
KCRP
191720Z 1918/2018 36016G22KT P6SM -SHRA OVC006 TEMPO 1918/1921 2SM SHRA BR SCT004 BKN012 FM192100 35011KT P6SM BKN015 TEMPO 1921/1924 FEW015 SCT035 FM200400 01013KT 6SM BR OVC015 FM201600 02008KT P6SM SCT018 BKN080
KNGP
(12.1 nm SE from KCRP)
1923/2023 01018G25KT 9999 OVC012 QNH2998INS TEMPO 1923/2003 02016G22KT BKN008 BECMG 2002/2003 01015G20KT OVC015 QNH3007INS TEMPO 2003/2009 OVC008 FM201300 03014G20KT 9999 BKN012 OVC024 QNH3016INS FM201800 03011KT 9999 SCT015 BKN025 QNH3011INS AUTOMATED SENSOR METWATCH 2001 TIL 2206 T12/2011Z T15/2020Z
  Airport Weather Conditions for KCRP

 Current Weather at CRP
61° F
Overcast
North winds at 8.1 mph
CRP NOAA Radar

Pressure: 30.08 in
Humidity: 84%
Wind: North at 8.1 MPH (7 KT)
Dew Point: 55.9°F
Visibility: 10.00 mi


Airport Weather Forecast for KCRP

Translated METAR and TAF for KCRP
Translated METAR for KCRP (0258 UTC 20 December 2014)
found at http://aviationweather.gov/adds/metars/
 
METAR text: KCRP 200251Z 01010KT 10SM BKN015 BKN020 OVC025 16/13 A3009 RMK AO2 SLP190 T01610133 53016 $
Conditions at: KCRP (CORPUS CHRISTI , TX, US) observed 0251 UTC 20 December 2014
Temperature: 16.1°C (61°F)
Dewpoint: 13.3°C (56°F) [RH = 83%]
Pressure (altimeter): 30.09 inches Hg (1019.0 mb)
[Sea-level pressure: 1019.0 mb]
Winds: from the N (10 degrees) at 12 MPH (10 knots; 5.2 m/s)
Visibility: 10 or more miles (16+ km)
Ceiling: 1500 feet AGL
Clouds: broken clouds at 1500 feet AGL
broken clouds at 2000 feet AGL
overcast cloud deck at 2500 feet AGL
Weather:
SOME DATA ABOVE MAY BE INACCURATE!!!
"$" is an indication the sensor requires maintenance
Translated TAF for KCRP
Forecast for: KCRP (CORPUS CHRISTI , TX, US)
TAF Text: KCRP 192330Z 2000/2024 35011KT P6SM BKN015
Forecast period: 0000 to 0400 UTC 20 December 2014
Forecast type: FROM: standard forecast or significant change
Winds: from the N (350 degrees) at 13 MPH (11 knots; 5.7 m/s)
Visibility: 6 or more miles (10+ km)
Ceiling: 1500 feet AGL
Clouds: broken clouds at 1500 feet AGL
Weather: no significant weather forecast for this period
TAF Text: FM200400 01013KT 6SM BR OVC015
Forecast period: 0400 to 1600 UTC 20 December 2014
Forecast type: FROM: standard forecast or significant change
Winds: from the N (10 degrees) at 15 MPH (13 knots; 6.8 m/s)
Visibility: 6 miles (10 km)
Ceiling: 1500 feet AGL
Clouds: overcast cloud deck at 1500 feet AGL
Weather: BR  (mist)
TAF Text: FM201600 02012KT P6SM SCT018 BKN080
Forecast period: 1600 UTC 20 December 2014 to 0000 UTC 21 December 2014
Forecast type: FROM: standard forecast or significant change
Winds: from the NNE (20 degrees) at 14 MPH (12 knots; 6.2 m/s)
Visibility: 6 or more miles (10+ km)
Ceiling: 8000 feet AGL
Clouds: scattered clouds at 1800 feet AGL
broken clouds at 8000 feet AGL
Weather: no significant weather forecast for this period

Find All Airport Services Find A Hotel Find A Rental Car Find A Golf Course Find A Restaurant $100 Hamburger



FBO's on the Field
FBO Company Facility Photos Services Transportation Aviation Fuel Prices: Prices include tax
Catering Weather Repair Courtesy Rental Type 100LL JetA JetA+ MOGAS 8087
 
Atlantic Aviation

This FBO has not yet been rated
FS:Independent
Last Updated: Dec-19
Login to update fuel prices
SS:
Contact Atlantic AviationMore FBO Information
 
Signature Flight Support

This FBO has not yet been rated
FS:Avfuel
Last Updated: Dec-19
Login to update fuel prices
SS:
Contact Signature Flight SupportMore FBO Information
 
Add another FBO Facility Photos Catering Weather Repair Courtesy Rental Type 100LL JetA JetA+ MOGAS 8087
Services Transportation Aviation Fuel Prices: Prices include tax


model-print
model-print
model-print
model-print